You are listening to:
KATL Departure (Rwys 9/27) - Atlanta, Georgia, United States

KATL 251752Z 09013G18KT 10SM BKN020 OVC032 24/19 A3012 RMK AO2 SLP190 BINOVC 60000 T02440189 10244 20200 58014

If stream doesn't start automatically press the play button
If stream stops then reload player then press play